createdAt,value
2018-08-06T00:00:40.592Z,0.00
2018-08-06T00:01:40.590Z,0.00
2018-08-06T00:02:40.591Z,0.00
2018-08-06T00:03:40.592Z,0.00
2018-08-06T00:04:40.594Z,0.00
2018-08-06T00:05:40.596Z,0.00
2018-08-06T00:06:40.596Z,0.00
2018-08-06T00:07:40.599Z,0.00
2018-08-06T00:08:42.577Z,0.00
2018-08-06T00:09:40.600Z,0.00
2018-08-06T00:10:40.601Z,0.00
2018-08-06T00:11:40.603Z,0.00
2018-08-06T00:12:40.607Z,0.00
2018-08-06T00:13:40.607Z,0.00
2018-08-06T00:14:40.607Z,0.00
2018-08-06T00:15:40.611Z,0.00
2018-08-06T00:16:40.617Z,0.00
2018-08-06T00:17:40.611Z,0.00
2018-08-06T00:18:40.612Z,0.00
2018-08-06T00:19:40.613Z,0.00
2018-08-06T00:20:40.615Z,0.00
2018-08-06T00:21:40.616Z,0.00
2018-08-06T00:22:40.618Z,0.00
2018-08-06T00:23:40.617Z,0.00
2018-08-06T00:24:40.621Z,0.00
2018-08-06T00:25:40.620Z,0.00
2018-08-06T00:26:40.620Z,0.00
2018-08-06T00:27:40.620Z,0.00
2018-08-06T00:28:40.625Z,0.00
2018-08-06T00:29:40.694Z,0.00
2018-08-06T00:30:40.624Z,0.00
2018-08-06T00:31:40.627Z,0.00
2018-08-06T00:32:40.628Z,0.00
2018-08-06T00:33:40.629Z,0.00
2018-08-06T00:34:40.631Z,0.00
2018-08-06T00:35:40.632Z,0.00
2018-08-06T00:36:40.632Z,0.00
2018-08-06T00:37:40.634Z,0.00
2018-08-06T00:38:40.636Z,0.00
2018-08-06T00:39:40.635Z,0.00
2018-08-06T00:40:40.635Z,0.00
2018-08-06T00:41:40.645Z,0.00
2018-08-06T00:42:40.638Z,0.00
2018-08-06T00:43:40.639Z,0.00
2018-08-06T00:44:40.641Z,0.00
2018-08-06T00:45:40.642Z,0.00
2018-08-06T00:46:40.643Z,0.00
2018-08-06T00:47:40.641Z,0.00
2018-08-06T00:48:40.645Z,0.00
2018-08-06T00:49:40.644Z,0.00
2018-08-06T00:50:40.649Z,0.00
2018-08-06T00:51:40.650Z,0.00
2018-08-06T00:52:40.649Z,0.00
2018-08-06T00:53:40.648Z,0.00
2018-08-06T00:54:40.648Z,0.00
2018-08-06T00:55:40.650Z,0.00
2018-08-06T00:56:40.651Z,0.00
2018-08-06T00:57:40.652Z,0.00
2018-08-06T00:58:40.652Z,0.00
2018-08-06T00:59:40.655Z,0.00
2018-08-06T01:00:40.654Z,0.00
2018-08-06T01:01:40.659Z,0.00
2018-08-06T01:02:40.656Z,0.00
2018-08-06T01:03:40.657Z,0.00
2018-08-06T01:04:40.657Z,0.00
2018-08-06T01:05:40.658Z,0.00
2018-08-06T01:06:40.659Z,0.00
2018-08-06T01:07:40.659Z,0.00
2018-08-06T01:08:40.664Z,0.00
2018-08-06T01:09:40.662Z,0.00
2018-08-06T01:10:40.664Z,0.00
2018-08-06T01:11:40.663Z,0.00
2018-08-06T01:12:40.666Z,0.00
2018-08-06T01:13:40.667Z,0.00
2018-08-06T01:14:40.666Z,0.00
2018-08-06T01:15:40.669Z,0.00
2018-08-06T01:16:40.669Z,0.00
2018-08-06T01:17:40.668Z,0.00
2018-08-06T01:18:40.668Z,0.00
2018-08-06T01:19:40.670Z,0.00
2018-08-06T01:20:40.674Z,0.00
2018-08-06T01:21:40.675Z,0.00
2018-08-06T01:22:40.671Z,0.00
2018-08-06T01:23:40.680Z,0.00
2018-08-06T01:24:40.673Z,0.00
2018-08-06T01:25:40.675Z,0.00
2018-08-06T01:26:40.678Z,0.00
2018-08-06T01:27:40.675Z,0.00
2018-08-06T01:28:40.677Z,0.00
2018-08-06T01:29:40.678Z,0.00
2018-08-06T01:30:40.676Z,0.00
2018-08-06T01:31:40.679Z,0.00
2018-08-06T01:32:40.678Z,0.00
2018-08-06T01:33:40.679Z,0.00
2018-08-06T01:34:40.681Z,0.00
2018-08-06T01:35:40.680Z,0.00
2018-08-06T01:36:40.680Z,0.00
2018-08-06T01:37:40.683Z,0.00
2018-08-06T01:38:40.680Z,0.00
2018-08-06T01:39:40.683Z,0.00
2018-08-06T01:40:40.683Z,0.00
2018-08-06T01:41:40.684Z,0.00
2018-08-06T01:42:40.684Z,0.00
2018-08-06T01:43:40.683Z,0.00
2018-08-06T01:44:40.685Z,0.00
2018-08-06T01:45:40.698Z,0.00
2018-08-06T01:46:40.686Z,0.00
2018-08-06T01:47:40.687Z,0.00
2018-08-06T01:48:40.687Z,0.00
2018-08-06T01:49:40.689Z,0.00
2018-08-06T01:50:40.688Z,0.00
2018-08-06T01:51:40.689Z,0.00
2018-08-06T01:52:40.692Z,0.00
2018-08-06T01:53:40.690Z,0.00
2018-08-06T01:54:40.690Z,0.00
2018-08-06T01:55:40.694Z,0.00
2018-08-06T01:56:40.692Z,0.00
2018-08-06T01:57:40.692Z,0.00
2018-08-06T01:58:40.692Z,0.00
2018-08-06T01:59:40.694Z,0.00
2018-08-06T02:00:40.693Z,0.00
2018-08-06T02:01:40.693Z,0.00
2018-08-06T02:02:40.692Z,0.00
2018-08-06T02:03:40.696Z,0.00
2018-08-06T02:04:40.696Z,0.00
2018-08-06T02:05:40.697Z,0.00
2018-08-06T02:06:40.698Z,0.00
2018-08-06T02:07:40.696Z,0.00
2018-08-06T02:08:40.697Z,0.00
2018-08-06T02:09:40.698Z,0.00
2018-08-06T02:10:40.697Z,0.00
2018-08-06T02:11:40.696Z,0.00
2018-08-06T02:12:40.711Z,0.00
2018-08-06T02:13:40.700Z,0.00
2018-08-06T02:14:40.699Z,0.00
2018-08-06T02:15:40.700Z,0.00
2018-08-06T02:16:40.709Z,0.00
2018-08-06T02:17:40.702Z,0.00
2018-08-06T02:18:40.701Z,0.00
2018-08-06T02:19:40.701Z,0.00
2018-08-06T02:20:40.702Z,0.00
2018-08-06T02:21:40.703Z,0.00
2018-08-06T02:22:40.701Z,0.00
2018-08-06T02:23:40.704Z,0.00
2018-08-06T02:24:40.703Z,0.00
2018-08-06T02:25:40.703Z,0.00
2018-08-06T02:26:40.704Z,0.00
2018-08-06T02:27:40.712Z,0.00
2018-08-06T02:28:40.703Z,0.00
2018-08-06T02:29:40.706Z,0.00
2018-08-06T02:30:40.704Z,0.00
2018-08-06T02:31:40.706Z,0.00
2018-08-06T02:32:40.707Z,0.00
2018-08-06T02:33:40.706Z,0.00
2018-08-06T02:34:40.705Z,0.00
2018-08-06T02:35:40.705Z,0.00
2018-08-06T02:36:40.707Z,0.00
2018-08-06T02:37:40.708Z,0.00
2018-08-06T02:38:40.707Z,0.00
2018-08-06T02:39:40.705Z,0.00
2018-08-06T02:40:40.708Z,0.00
2018-08-06T02:41:40.712Z,0.00
2018-08-06T02:42:40.708Z,0.00
2018-08-06T02:43:40.711Z,0.00
2018-08-06T02:44:40.711Z,0.00
2018-08-06T02:45:40.710Z,0.00
2018-08-06T02:46:40.708Z,0.00
2018-08-06T02:47:40.710Z,0.00
2018-08-06T02:48:40.709Z,0.00
2018-08-06T02:49:40.709Z,0.00
2018-08-06T02:50:40.714Z,0.00
2018-08-06T02:51:40.710Z,0.00
2018-08-06T02:52:40.710Z,0.00
2018-08-06T02:53:40.715Z,0.00
2018-08-06T02:54:40.708Z,0.00
2018-08-06T02:55:40.712Z,0.00
2018-08-06T02:56:40.710Z,0.00
2018-08-06T02:57:40.714Z,0.00
2018-08-06T02:58:40.709Z,0.00
2018-08-06T02:59:40.714Z,0.00
2018-08-06T03:00:40.709Z,0.00
2018-08-06T03:01:40.711Z,0.00
2018-08-06T03:02:40.713Z,0.00
2018-08-06T03:03:40.711Z,0.00
2018-08-06T03:04:40.713Z,0.00
2018-08-06T03:05:40.712Z,0.00
2018-08-06T03:06:40.712Z,0.00
2018-08-06T03:07:40.712Z,0.00
2018-08-06T03:08:40.712Z,0.00
2018-08-06T03:09:40.710Z,0.00
2018-08-06T03:10:40.712Z,0.00
2018-08-06T03:11:40.718Z,0.00
2018-08-06T03:12:40.713Z,0.00
2018-08-06T03:13:40.712Z,0.00
2018-08-06T03:14:40.712Z,0.00
2018-08-06T03:15:40.712Z,0.00
2018-08-06T03:16:40.712Z,0.00
2018-08-06T03:17:40.712Z,0.00
2018-08-06T03:18:40.713Z,0.00
2018-08-06T03:19:40.711Z,0.00
2018-08-06T03:20:40.711Z,0.00
2018-08-06T03:21:40.712Z,0.00
2018-08-06T03:22:40.710Z,0.00
2018-08-06T03:23:40.713Z,0.00
2018-08-06T03:24:40.713Z,0.00
2018-08-06T03:25:40.711Z,0.00
2018-08-06T03:26:40.712Z,0.00
2018-08-06T03:27:40.714Z,0.00
2018-08-06T03:28:40.716Z,0.00
2018-08-06T03:29:40.771Z,0.00
2018-08-06T03:30:40.712Z,0.00
2018-08-06T03:31:40.712Z,0.00
2018-08-06T03:32:40.711Z,0.00
2018-08-06T03:33:40.711Z,0.00
2018-08-06T03:34:40.713Z,0.00
2018-08-06T03:35:40.711Z,0.00
2018-08-06T03:36:40.712Z,0.00
2018-08-06T03:37:40.713Z,0.00
2018-08-06T03:38:40.711Z,0.00
2018-08-06T03:39:40.717Z,0.00
2018-08-06T03:40:40.717Z,0.00
2018-08-06T03:41:40.711Z,0.00
2018-08-06T03:42:40.710Z,0.00
2018-08-06T03:43:40.709Z,0.00
2018-08-06T03:44:40.712Z,0.00
2018-08-06T03:45:40.712Z,0.00
2018-08-06T03:46:40.712Z,0.00
2018-08-06T03:47:40.710Z,0.00
2018-08-06T03:48:40.710Z,0.00
2018-08-06T03:49:40.716Z,0.00
2018-08-06T03:50:40.711Z,0.00
2018-08-06T03:51:40.712Z,0.00
2018-08-06T03:52:40.768Z,0.00
2018-08-06T03:53:40.712Z,0.00
2018-08-06T03:54:40.708Z,0.00
2018-08-06T03:55:40.710Z,0.00
2018-08-06T03:56:40.712Z,0.00
2018-08-06T03:57:40.710Z,0.00
2018-08-06T03:58:40.709Z,0.00
2018-08-06T03:59:40.726Z,0.00
2018-08-06T04:00:40.709Z,0.00
2018-08-06T04:01:40.708Z,5.63
2018-08-06T04:02:40.710Z,5.63
2018-08-06T04:03:40.709Z,5.63
2018-08-06T04:04:40.710Z,5.63
2018-08-06T04:05:40.708Z,5.63
2018-08-06T04:06:40.709Z,5.63
2018-08-06T04:07:40.707Z,5.63
2018-08-06T04:08:40.708Z,5.63
2018-08-06T04:09:40.710Z,5.63
2018-08-06T04:10:40.709Z,5.63
2018-08-06T04:11:40.711Z,5.63
2018-08-06T04:12:40.709Z,5.63
2018-08-06T04:13:40.709Z,5.63
2018-08-06T04:14:40.712Z,5.63
2018-08-06T04:15:40.708Z,5.63
2018-08-06T04:16:40.707Z,5.63
2018-08-06T04:17:40.713Z,5.63
2018-08-06T04:18:40.708Z,11.25
2018-08-06T04:19:40.712Z,11.25
2018-08-06T04:20:40.707Z,11.25
2018-08-06T04:21:40.709Z,11.25
2018-08-06T04:22:40.708Z,11.25
2018-08-06T04:23:40.710Z,11.25
2018-08-06T04:24:40.704Z,11.25
2018-08-06T04:25:40.710Z,11.25
2018-08-06T04:26:40.710Z,11.25
2018-08-06T04:27:40.706Z,11.25
2018-08-06T04:28:40.708Z,11.25
2018-08-06T04:29:40.707Z,11.25
2018-08-06T04:30:40.705Z,11.25
2018-08-06T04:31:40.704Z,11.25
2018-08-06T04:32:40.748Z,11.25
2018-08-06T04:33:40.705Z,11.25
2018-08-06T04:34:40.730Z,16.88
2018-08-06T04:35:40.704Z,16.88
2018-08-06T04:36:40.705Z,16.88
2018-08-06T04:37:40.704Z,16.88
2018-08-06T04:38:40.712Z,16.88
2018-08-06T04:39:40.707Z,16.88
2018-08-06T04:40:40.704Z,16.88
2018-08-06T04:41:40.704Z,16.88
2018-08-06T04:42:40.707Z,16.88
2018-08-06T04:43:40.702Z,16.88
2018-08-06T04:44:40.701Z,16.88
2018-08-06T04:45:40.703Z,16.88
2018-08-06T04:46:40.702Z,16.88
2018-08-06T04:47:40.708Z,16.88
2018-08-06T04:48:40.705Z,16.88
2018-08-06T04:49:40.703Z,16.88
2018-08-06T04:50:40.706Z,16.88
2018-08-06T04:51:40.708Z,16.88
2018-08-06T04:52:40.714Z,22.50
2018-08-06T04:53:40.706Z,22.50
2018-08-06T04:54:40.701Z,22.50
2018-08-06T04:55:40.702Z,22.50
2018-08-06T04:56:40.704Z,22.50
2018-08-06T04:57:40.702Z,22.50
2018-08-06T04:58:40.701Z,22.50
2018-08-06T04:59:40.737Z,22.50
2018-08-06T05:00:40.706Z,22.50
2018-08-06T05:01:40.851Z,22.50
2018-08-06T05:02:40.703Z,22.50
2018-08-06T05:03:40.704Z,22.50
2018-08-06T05:04:40.703Z,22.50
2018-08-06T05:05:40.703Z,22.50
2018-08-06T05:06:40.702Z,22.50
2018-08-06T05:07:40.703Z,22.50
2018-08-06T05:08:40.716Z,22.50
2018-08-06T05:09:40.705Z,22.50
2018-08-06T05:10:40.704Z,22.50
2018-08-06T05:11:40.705Z,22.50
2018-08-06T05:12:40.709Z,28.13
2018-08-06T05:13:40.760Z,28.13
2018-08-06T05:14:40.707Z,28.13
2018-08-06T05:15:40.712Z,28.13
2018-08-06T05:16:40.709Z,28.13
2018-08-06T05:17:40.710Z,28.13
2018-08-06T05:18:40.711Z,28.13
2018-08-06T05:19:40.708Z,28.13
2018-08-06T05:20:40.710Z,28.13
2018-08-06T05:21:40.774Z,28.13
2018-08-06T05:22:40.709Z,28.13
2018-08-06T05:23:40.709Z,28.13
2018-08-06T05:24:40.780Z,28.13
2018-08-06T05:25:40.711Z,28.13
2018-08-06T05:26:40.713Z,28.13
2018-08-06T05:27:40.712Z,28.13
2018-08-06T05:28:40.716Z,28.13
2018-08-06T05:29:40.713Z,28.13
2018-08-06T05:30:40.714Z,28.13
2018-08-06T05:31:40.716Z,28.13
2018-08-06T05:32:40.716Z,28.13
2018-08-06T05:33:40.718Z,28.13
2018-08-06T05:34:40.756Z,28.13
2018-08-06T05:35:40.720Z,33.75
2018-08-06T05:36:40.720Z,33.75
2018-08-06T05:37:40.725Z,33.75
2018-08-06T05:38:40.721Z,33.75
2018-08-06T05:39:40.719Z,33.75
2018-08-06T05:40:40.729Z,33.75
2018-08-06T05:41:40.722Z,33.75
2018-08-06T05:42:40.725Z,33.75
2018-08-06T05:43:40.729Z,33.75
2018-08-06T05:44:40.727Z,33.75
2018-08-06T05:45:40.726Z,39.38
2018-08-06T05:46:40.730Z,39.38
2018-08-06T05:47:40.734Z,39.38
2018-08-06T05:48:40.764Z,39.38
2018-08-06T05:49:40.735Z,39.38
2018-08-06T05:50:40.794Z,39.38
2018-08-06T05:51:40.792Z,39.38
2018-08-06T05:52:40.788Z,39.38
2018-08-06T05:53:40.738Z,45.00
2018-08-06T05:54:40.738Z,45.00
2018-08-06T05:55:40.746Z,45.00
2018-08-06T05:56:40.750Z,45.00
2018-08-06T05:57:40.746Z,45.00
2018-08-06T05:58:40.744Z,50.63
2018-08-06T05:59:40.748Z,50.63
2018-08-06T06:00:40.749Z,50.63
2018-08-06T06:01:40.753Z,50.63
2018-08-06T06:02:40.755Z,56.25
2018-08-06T06:03:40.761Z,61.88
2018-08-06T06:04:40.757Z,95.63
2018-08-06T06:05:40.760Z,135.00
2018-08-06T06:06:40.761Z,140.63
2018-08-06T06:07:40.764Z,140.63
2018-08-06T06:08:40.767Z,146.25
2018-08-06T06:09:40.765Z,146.25
2018-08-06T06:10:40.769Z,146.25
2018-08-06T06:11:40.772Z,146.25
2018-08-06T06:12:40.775Z,157.50
2018-08-06T06:13:40.783Z,151.88
2018-08-06T06:14:40.777Z,151.88
2018-08-06T06:15:40.783Z,151.88
2018-08-06T06:16:40.787Z,157.50
2018-08-06T06:17:40.790Z,163.13
2018-08-06T06:18:40.793Z,157.50
2018-08-06T06:19:40.798Z,157.50
2018-08-06T06:20:40.798Z,157.50
2018-08-06T06:21:40.808Z,163.13
2018-08-06T06:22:40.810Z,163.13
2018-08-06T06:23:40.814Z,163.13
2018-08-06T06:24:40.820Z,163.13
2018-08-06T06:25:40.878Z,168.75
2018-08-06T06:26:40.830Z,168.75
2018-08-06T06:27:40.843Z,174.38
2018-08-06T06:28:40.899Z,174.38
2018-08-06T06:29:40.848Z,174.38
2018-08-06T06:30:40.863Z,174.38
2018-08-06T06:31:40.855Z,180.00
2018-08-06T06:32:40.862Z,180.00
2018-08-06T06:33:40.867Z,174.38
2018-08-06T06:34:40.990Z,174.38
2018-08-06T06:35:40.879Z,174.38
2018-08-06T06:36:40.883Z,180.00
2018-08-06T06:37:40.888Z,185.63
2018-08-06T06:38:40.893Z,185.63
2018-08-06T06:39:41.180Z,191.25
2018-08-06T06:40:40.906Z,191.25
2018-08-06T06:41:40.965Z,196.88
2018-08-06T06:42:40.917Z,202.50
2018-08-06T06:43:40.931Z,208.13
2018-08-06T06:44:40.935Z,208.13
2018-08-06T06:45:40.948Z,208.13
2018-08-06T06:46:40.948Z,208.13
2018-08-06T06:47:40.949Z,180.00
2018-08-06T06:48:40.958Z,135.00
2018-08-06T06:49:40.964Z,135.00
2018-08-06T06:50:40.971Z,129.38
2018-08-06T06:51:40.977Z,118.13
2018-08-06T06:52:40.986Z,157.50
2018-08-06T06:53:40.992Z,140.63
2018-08-06T06:54:40.998Z,196.88
2018-08-06T06:55:41.006Z,118.13
2018-08-06T06:56:41.016Z,213.75
2018-08-06T06:57:41.020Z,230.63
2018-08-06T06:58:41.024Z,213.75
2018-08-06T06:59:41.038Z,247.50
2018-08-06T07:00:41.041Z,157.50
2018-08-06T07:01:41.048Z,241.88
2018-08-06T07:02:41.054Z,258.75
2018-08-06T07:03:41.062Z,236.25
2018-08-06T07:04:41.071Z,163.13
2018-08-06T07:05:41.078Z,241.88
2018-08-06T07:06:41.084Z,219.38
2018-08-06T07:07:41.092Z,241.88
2018-08-06T07:08:41.104Z,241.88
2018-08-06T07:09:41.108Z,225.00
2018-08-06T07:10:41.116Z,118.13
2018-08-06T07:11:41.123Z,180.00
2018-08-06T07:12:41.134Z,247.50
2018-08-06T07:13:41.151Z,241.88
2018-08-06T07:14:41.149Z,241.88
2018-08-06T07:15:41.155Z,247.50
2018-08-06T07:16:41.198Z,241.88
2018-08-06T07:17:41.172Z,241.88
2018-08-06T07:18:41.261Z,241.88
2018-08-06T07:19:41.209Z,241.88
2018-08-06T07:20:41.201Z,241.88
2018-08-06T07:21:41.207Z,241.88
2018-08-06T07:22:41.214Z,247.50
2018-08-06T07:23:41.226Z,247.50
2018-08-06T07:24:41.233Z,247.50
2018-08-06T07:25:41.246Z,253.13
2018-08-06T07:26:41.251Z,253.13
2018-08-06T07:27:41.261Z,225.00
2018-08-06T07:28:41.275Z,230.63
2018-08-06T07:29:41.281Z,270.00
2018-08-06T07:30:41.288Z,225.00
2018-08-06T07:31:41.300Z,264.38
2018-08-06T07:32:41.308Z,264.38
2018-08-06T07:33:41.329Z,270.00
2018-08-06T07:34:41.326Z,270.00
2018-08-06T07:35:41.335Z,270.00
2018-08-06T07:36:41.350Z,270.00
2018-08-06T07:37:41.360Z,275.63
2018-08-06T07:38:41.364Z,281.25
2018-08-06T07:39:41.375Z,281.25
2018-08-06T07:40:41.387Z,281.25
2018-08-06T07:41:41.396Z,281.25
2018-08-06T07:42:41.405Z,281.25
2018-08-06T07:43:41.417Z,286.88
2018-08-06T07:44:41.435Z,286.88
2018-08-06T07:45:41.438Z,286.88
2018-08-06T07:46:41.447Z,286.88
2018-08-06T07:47:41.462Z,292.50
2018-08-06T07:48:41.468Z,292.50
2018-08-06T07:49:41.542Z,292.50
2018-08-06T07:50:41.486Z,298.13
2018-08-06T07:51:41.498Z,298.13
2018-08-06T07:52:41.509Z,298.13
2018-08-06T07:53:41.518Z,303.75
2018-08-06T07:54:41.531Z,303.75
2018-08-06T07:55:41.541Z,309.38
2018-08-06T07:56:41.566Z,309.38
2018-08-06T07:57:41.564Z,315.00
2018-08-06T07:58:41.573Z,315.00
2018-08-06T07:59:41.623Z,320.63
2018-08-06T08:00:41.597Z,320.63
2018-08-06T08:01:41.608Z,320.63
2018-08-06T08:02:41.620Z,326.25
2018-08-06T08:03:41.629Z,331.88
2018-08-06T08:04:41.651Z,331.88
2018-08-06T08:05:41.651Z,337.50
2018-08-06T08:06:41.662Z,343.13
2018-08-06T08:07:41.671Z,348.75
2018-08-06T08:08:41.689Z,354.38
2018-08-06T08:09:41.697Z,360.00
2018-08-06T08:10:41.722Z,371.25
2018-08-06T08:11:41.720Z,382.50
2018-08-06T08:12:41.735Z,393.75
2018-08-06T08:13:41.743Z,421.88
2018-08-06T08:14:41.756Z,461.25
2018-08-06T08:15:41.765Z,511.88
2018-08-06T08:16:41.825Z,556.88
2018-08-06T08:17:41.801Z,601.88
2018-08-06T08:18:41.802Z,624.38
2018-08-06T08:19:41.824Z,635.63
2018-08-06T08:20:41.854Z,663.75
2018-08-06T08:21:41.841Z,669.38
2018-08-06T08:22:41.870Z,669.38
2018-08-06T08:23:41.875Z,675.00
2018-08-06T08:24:41.879Z,686.25
2018-08-06T08:25:41.889Z,708.75
2018-08-06T08:26:41.900Z,759.38
2018-08-06T08:27:41.909Z,821.25
2018-08-06T08:28:41.924Z,871.88
2018-08-06T08:29:41.937Z,956.25
2018-08-06T08:30:41.948Z,1068.75
2018-08-06T08:31:41.966Z,1153.13
2018-08-06T08:32:41.979Z,1243.13
2018-08-06T08:33:41.988Z,1276.88
2018-08-06T08:34:42.002Z,1293.75
2018-08-06T08:35:42.013Z,1321.88
2018-08-06T08:36:42.028Z,1316.25
2018-08-06T08:38:35.323Z,1237.50
2018-08-06T08:39:34.980Z,1203.75
2018-08-06T08:41:27.996Z,1141.88
2018-08-06T08:42:27.877Z,1119.38
2018-08-06T08:44:21.232Z,1096.88
2018-08-06T08:45:20.774Z,1085.63
2018-08-06T08:47:13.685Z,1136.25
2018-08-06T08:48:13.697Z,1153.13
2018-08-06T08:50:07.148Z,1130.63
2018-08-06T08:51:07.171Z,1113.75
2018-08-06T08:53:00.059Z,1046.25
2018-08-06T08:54:00.051Z,1012.50
2018-08-06T08:55:00.058Z,990.00
2018-08-06T08:56:00.092Z,939.38
2018-08-06T08:57:00.083Z,883.13
2018-08-06T08:58:00.287Z,843.75
2018-08-06T08:59:00.230Z,826.88
2018-08-06T09:00:00.133Z,821.25
2018-08-06T09:01:00.139Z,810.00
2018-08-06T09:02:00.147Z,804.38
2018-08-06T09:03:00.173Z,826.88
2018-08-06T09:04:00.186Z,832.50
2018-08-06T09:05:00.193Z,815.63
2018-08-06T09:06:00.207Z,787.50
2018-08-06T09:07:00.225Z,753.75
2018-08-06T09:08:00.231Z,720.00
2018-08-06T09:09:00.247Z,691.88
2018-08-06T09:10:00.265Z,663.75
2018-08-06T09:11:00.278Z,641.25
2018-08-06T09:12:00.292Z,630.00
2018-08-06T09:13:00.305Z,613.13
2018-08-06T09:14:00.339Z,596.25
2018-08-06T09:15:00.336Z,495.00
2018-08-06T09:16:00.347Z,343.13
2018-08-06T09:17:00.363Z,236.25
2018-08-06T09:18:00.374Z,213.75
2018-08-06T09:19:00.392Z,202.50
2018-08-06T09:20:00.405Z,196.88
2018-08-06T09:21:00.418Z,185.63
2018-08-06T09:22:00.431Z,180.00
2018-08-06T09:23:00.445Z,174.38
2018-08-06T09:24:00.466Z,168.75
2018-08-06T09:25:00.474Z,168.75
2018-08-06T09:26:00.489Z,163.13
2018-08-06T09:27:00.499Z,163.13
2018-08-06T09:28:00.517Z,157.50
2018-08-06T09:29:00.523Z,157.50
2018-08-06T09:30:00.533Z,157.50
2018-08-06T09:31:00.551Z,157.50
2018-08-06T09:32:00.559Z,151.88
2018-08-06T09:33:00.574Z,151.88
2018-08-06T09:34:00.659Z,151.88
2018-08-06T09:35:00.596Z,151.88
2018-08-06T09:36:00.612Z,151.88
2018-08-06T09:37:00.619Z,151.88
2018-08-06T09:38:00.643Z,151.88
2018-08-06T09:39:00.899Z,151.88
2018-08-06T09:40:00.651Z,151.88
2018-08-06T09:41:00.664Z,151.88
2018-08-06T09:42:00.672Z,157.50
2018-08-06T09:43:00.686Z,157.50
2018-08-06T09:44:00.701Z,157.50
2018-08-06T09:45:00.908Z,157.50
2018-08-06T09:46:00.714Z,157.50
2018-08-06T09:47:00.724Z,157.50
2018-08-06T09:48:00.733Z,157.50
2018-08-06T09:49:00.746Z,157.50
2018-08-06T09:50:00.754Z,157.50
2018-08-06T09:51:00.773Z,157.50
2018-08-06T09:52:00.771Z,157.50
2018-08-06T09:53:00.782Z,157.50
2018-08-06T09:54:01.593Z,157.50
2018-08-06T09:55:00.810Z,157.50
2018-08-06T09:56:00.815Z,157.50
2018-08-06T09:57:00.884Z,157.50
2018-08-06T09:58:00.831Z,157.50
2018-08-06T09:59:00.838Z,163.13
2018-08-06T10:00:00.847Z,163.13
2018-08-06T10:01:00.857Z,163.13
2018-08-06T10:02:00.865Z,163.13
2018-08-06T10:03:00.964Z,163.13
2018-08-06T10:04:00.912Z,163.13
2018-08-06T10:05:00.894Z,163.13
2018-08-06T10:06:00.994Z,163.13
2018-08-06T10:07:00.908Z,163.13
2018-08-06T10:08:00.928Z,163.13
2018-08-06T10:09:00.938Z,174.38
2018-08-06T10:10:00.937Z,168.75
2018-08-06T10:11:00.944Z,168.75
2018-08-06T10:12:00.962Z,168.75
2018-08-06T10:13:00.964Z,163.13
2018-08-06T10:14:00.973Z,163.13
2018-08-06T10:15:00.983Z,168.75
2018-08-06T10:16:00.997Z,168.75
2018-08-06T10:17:00.997Z,163.13
2018-08-06T10:18:01.014Z,163.13
2018-08-06T10:19:01.102Z,163.13
2018-08-06T10:20:01.034Z,163.13
2018-08-06T10:21:01.035Z,163.13
2018-08-06T10:22:01.048Z,163.13
2018-08-06T10:23:01.056Z,163.13
2018-08-06T10:24:08.582Z,163.13
2018-08-06T10:25:54.563Z,163.13
2018-08-06T10:27:02.681Z,163.13
2018-08-06T10:28:47.699Z,163.13
2018-08-06T10:29:47.623Z,168.75
2018-08-06T10:31:40.588Z,163.13
2018-08-06T10:32:40.544Z,163.13
2018-08-06T10:34:33.439Z,163.13
2018-08-06T10:35:33.469Z,163.13
2018-08-06T10:37:26.338Z,163.13
2018-08-06T10:38:26.322Z,163.13
2018-08-06T10:39:26.332Z,163.13
2018-08-06T10:40:26.443Z,163.13
2018-08-06T10:41:26.369Z,163.13
2018-08-06T10:43:19.411Z,163.13
2018-08-06T10:44:19.324Z,163.13
2018-08-06T10:46:12.181Z,157.50
2018-08-06T10:47:12.168Z,157.50
2018-08-06T10:49:05.626Z,157.50
2018-08-06T10:50:05.613Z,157.50
2018-08-06T10:51:59.118Z,157.50
2018-08-06T10:52:59.051Z,157.50
2018-08-06T10:54:51.996Z,157.50
2018-08-06T10:55:51.973Z,157.50
2018-08-06T10:56:51.973Z,157.50
2018-08-06T10:57:52.062Z,157.50
2018-08-06T10:58:51.973Z,163.13
2018-08-06T10:59:51.980Z,157.50
2018-08-06T11:00:51.991Z,157.50
2018-08-06T11:01:51.995Z,151.88
2018-08-06T11:02:52.047Z,151.88
2018-08-06T11:03:52.015Z,157.50
2018-08-06T11:04:52.025Z,151.88
2018-08-06T11:05:52.032Z,151.88
2018-08-06T11:06:52.040Z,151.88
2018-08-06T11:07:52.054Z,151.88
2018-08-06T11:08:52.113Z,151.88
2018-08-06T11:09:52.100Z,151.88
2018-08-06T11:10:52.083Z,151.88
2018-08-06T11:11:52.087Z,151.88
2018-08-06T11:12:52.097Z,151.88
2018-08-06T11:13:52.104Z,151.88
2018-08-06T11:14:52.114Z,151.88
2018-08-06T11:15:52.122Z,146.25
2018-08-06T11:16:52.141Z,146.25
2018-08-06T11:17:52.143Z,146.25
2018-08-06T11:18:52.147Z,146.25
2018-08-06T11:19:52.160Z,146.25
2018-08-06T11:20:52.212Z,146.25
2018-08-06T11:21:52.176Z,146.25
2018-08-06T11:22:52.188Z,146.25
2018-08-06T11:23:52.193Z,146.25
2018-08-06T11:24:52.202Z,146.25
2018-08-06T11:25:52.233Z,146.25
2018-08-06T11:26:52.218Z,146.25
2018-08-06T11:27:52.228Z,146.25
2018-08-06T11:28:52.239Z,146.25
2018-08-06T11:29:52.256Z,146.25
2018-08-06T11:30:52.340Z,146.25
2018-08-06T11:31:52.263Z,146.25
2018-08-06T11:32:52.315Z,146.25
2018-08-06T11:33:52.281Z,146.25
2018-08-06T11:34:55.002Z,146.25
2018-08-06T11:35:52.298Z,146.25
2018-08-06T11:36:52.369Z,146.25
2018-08-06T11:37:52.476Z,146.25
2018-08-06T11:38:52.324Z,140.63
2018-08-06T11:39:52.335Z,140.63
2018-08-06T11:40:52.342Z,140.63
2018-08-06T11:41:52.351Z,140.63
2018-08-06T11:42:52.360Z,140.63
2018-08-06T11:43:52.370Z,140.63
2018-08-06T11:44:54.997Z,140.63
2018-08-06T11:45:52.390Z,140.63
2018-08-06T11:46:52.390Z,140.63
2018-08-06T11:47:52.406Z,140.63
2018-08-06T11:48:52.431Z,140.63
2018-08-06T11:49:52.439Z,140.63
2018-08-06T11:50:52.430Z,140.63
2018-08-06T11:51:52.439Z,140.63
2018-08-06T11:52:52.448Z,140.63
2018-08-06T11:53:52.455Z,140.63
2018-08-06T11:54:52.465Z,140.63
2018-08-06T11:55:54.015Z,135.00
2018-08-06T11:56:52.593Z,135.00
2018-08-06T11:57:52.501Z,135.00
2018-08-06T11:58:52.501Z,135.00
2018-08-06T11:59:52.510Z,135.00
2018-08-06T12:00:52.518Z,135.00
2018-08-06T12:01:52.601Z,135.00
2018-08-06T12:02:52.534Z,135.00
2018-08-06T12:03:52.545Z,135.00
2018-08-06T12:04:52.554Z,135.00
2018-08-06T12:05:52.562Z,129.38
2018-08-06T12:06:52.583Z,129.38
2018-08-06T12:07:52.592Z,129.38
2018-08-06T12:08:52.590Z,129.38
2018-08-06T12:09:54.514Z,129.38
2018-08-06T12:10:52.610Z,129.38
2018-08-06T12:11:52.626Z,135.00
2018-08-06T12:12:52.636Z,129.38
2018-08-06T12:13:52.647Z,129.38
2018-08-06T12:14:52.643Z,129.38
2018-08-06T12:15:52.650Z,129.38
2018-08-06T12:16:52.674Z,129.38
2018-08-06T12:17:52.670Z,123.75
2018-08-06T12:18:52.693Z,123.75
2018-08-06T12:19:52.688Z,123.75
2018-08-06T12:20:52.749Z,123.75
2018-08-06T12:21:54.519Z,123.75
2018-08-06T12:22:54.519Z,123.75
2018-08-06T12:23:55.510Z,123.75
2018-08-06T12:24:52.751Z,123.75
2018-08-06T12:25:52.754Z,123.75
2018-08-06T12:26:52.750Z,123.75
2018-08-06T12:27:54.521Z,123.75
2018-08-06T12:28:52.782Z,123.75
2018-08-06T12:29:52.778Z,123.75
2018-08-06T12:30:52.786Z,123.75
2018-08-06T12:31:52.796Z,118.13
2018-08-06T12:32:52.910Z,118.13
2018-08-06T12:33:52.813Z,118.13
2018-08-06T12:34:52.823Z,118.13
2018-08-06T12:35:52.834Z,118.13
2018-08-06T12:36:54.521Z,118.13
2018-08-06T12:37:52.859Z,123.75
2018-08-06T12:38:52.858Z,118.13
2018-08-06T12:39:52.944Z,118.13
2018-08-06T12:40:52.898Z,118.13
2018-08-06T12:41:54.527Z,118.13
2018-08-06T12:42:52.894Z,118.13
2018-08-06T12:43:52.911Z,118.13
2018-08-06T12:44:54.527Z,118.13
2018-08-06T12:45:52.922Z,112.50
2018-08-06T12:46:52.932Z,112.50
2018-08-06T12:47:52.939Z,112.50
2018-08-06T12:48:52.951Z,112.50
2018-08-06T12:49:52.958Z,112.50
2018-08-06T12:50:52.966Z,112.50
2018-08-06T12:51:52.977Z,112.50
2018-08-06T12:52:53.002Z,112.50
2018-08-06T12:53:53.012Z,112.50
2018-08-06T12:54:53.020Z,112.50
2018-08-06T12:55:53.012Z,112.50
2018-08-06T12:57:00.392Z,112.50
2018-08-06T12:58:45.926Z,112.50
2018-08-06T12:59:45.939Z,112.50
2018-08-06T13:01:39.490Z,112.50
2018-08-06T13:02:38.856Z,106.88
2018-08-06T13:04:32.291Z,106.88